Time;durP1;ratioP1;P1;durP2;ratioP2;P2;SDS_P1;SDS_P2;PMS_P1;PMS_P2;Temp;Humidity;BMP_temperature;BMP_pressure;BME280_temperature;BME280_humidity;BME280_pressure;Samples;Min_cycle;Max_cycle;Signal;HPM_P1;HPM_P2
2022/02/28 00:01:52;;;;;;;4.13;2.57;;;6.10;86.20;;;;;;5051270;28;20227;-76
2022/02/28 00:04:20;;;;;;;3.10;2.53;;;6.00;86.40;;;;;;5029194;28;20188;-77
2022/02/28 00:06:46;;;;;;;3.75;2.45;;;6.00;86.70;;;;;;5047043;28;21015;-77
2022/02/28 00:09:12;;;;;;;4.28;2.58;;;6.00;86.60;;;;;;5043396;28;20205;-77
2022/02/28 00:11:38;;;;;;;3.90;3.07;;;6.00;86.80;;;;;;5045886;28;20204;-76
2022/02/28 00:14:03;;;;;;;3.20;2.10;;;6.00;86.80;;;;;;5040454;28;20734;-77
2022/02/28 00:16:29;;;;;;;3.90;2.83;;;5.90;86.90;;;;;;5043996;28;20234;-77
2022/02/28 00:18:55;;;;;;;4.87;2.90;;;5.90;87.80;;;;;;5050050;28;20678;-77
2022/02/28 00:21:21;;;;;;;4.90;2.70;;;5.90;87.60;;;;;;5043762;28;20694;-77
2022/02/28 00:23:47;;;;;;;4.97;2.90;;;5.90;88.20;;;;;;5050050;28;20188;-77
2022/02/28 00:26:12;;;;;;;4.70;3.67;;;5.80;88.10;;;;;;5051570;28;20573;-77
2022/02/28 00:28:38;;;;;;;5.07;2.70;;;5.80;88.10;;;;;;5048414;28;20212;-77
2022/02/28 00:31:04;;;;;;;4.80;3.10;;;5.80;88.30;;;;;;5046678;28;20198;-77
2022/02/28 00:33:30;;;;;;;4.00;2.50;;;5.80;88.50;;;;;;5053107;28;20264;-77
2022/02/28 00:35:55;;;;;;;2.83;2.23;;;5.80;88.90;;;;;;5031157;28;20176;-77
2022/02/28 00:38:21;;;;;;;4.70;3.20;;;5.80;88.80;;;;;;5046178;28;20182;-76
2022/02/28 00:40:47;;;;;;;4.00;2.90;;;5.80;89.10;;;;;;5045338;28;20200;-77
2022/02/28 00:43:13;;;;;;;3.60;2.60;;;5.70;89.80;;;;;;5043009;28;20189;-77
2022/02/28 00:45:40;;;;;;;4.75;2.95;;;5.70;89.40;;;;;;5051791;28;20279;-77
2022/02/28 00:48:06;;;;;;;6.63;4.03;;;5.70;89.40;;;;;;5019876;28;20209;-77
2022/02/28 00:50:32;;;;;;;5.27;3.53;;;5.70;89.80;;;;;;5043534;28;20219;-77
2022/02/28 00:52:58;;;;;;;5.17;4.20;;;5.60;90.20;;;;;;5048757;28;20649;-77
2022/02/28 00:55:24;;;;;;;4.57;2.60;;;5.60;90.10;;;;;;5050313;28;20576;-77
2022/02/28 00:57:50;;;;;;;5.50;3.25;;;5.60;90.20;;;;;;5038906;28;20177;-77
2022/02/28 01:00:20;;;;;;;5.10;3.60;;;5.60;90.20;;;;;;5032294;28;20209;-77
2022/02/28 01:02:46;;;;;;;5.00;2.70;;;5.60;90.30;;;;;;5051496;28;20189;-77
2022/02/28 01:05:14;;;;;;;4.03;2.50;;;5.60;90.30;;;;;;5049374;28;20193;-77
2022/02/28 01:07:40;;;;;;;3.92;2.58;;;5.60;90.30;;;;;;5049925;28;20225;-78
2022/02/28 01:10:09;;;;;;;4.82;3.17;;;5.60;90.30;;;;;;5052975;28;20197;-77
2022/02/28 01:12:35;;;;;;;3.83;2.90;;;5.60;90.60;;;;;;5052193;28;20593;-77
2022/02/28 01:15:02;;;;;;;3.90;2.58;;;5.50;90.50;;;;;;5048707;28;20173;-78
2022/02/28 01:17:28;;;;;;;4.60;3.33;;;5.50;90.50;;;;;;5049860;28;20181;-77
2022/02/28 01:19:54;;;;;;;5.13;2.67;;;5.50;90.50;;;;;;5051389;28;20210;-77
2022/02/28 01:22:20;;;;;;;3.13;2.72;;;5.50;90.70;;;;;;5052881;28;20173;-77
2022/02/28 01:24:45;;;;;;;3.73;2.23;;;5.50;90.70;;;;;;5048050;28;20356;-77
2022/02/28 01:27:11;;;;;;;3.43;2.57;;;5.50;90.70;;;;;;5052910;28;20181;-77
2022/02/28 01:29:37;;;;;;;4.30;2.50;;;5.50;90.60;;;;;;5050855;28;20180;-77
2022/02/28 01:32:03;;;;;;;3.47;2.50;;;5.40;91.00;;;;;;5054423;28;20205;-77
2022/02/28 01:34:29;;;;;;;3.05;2.75;;;5.40;91.30;;;;;;5052870;28;20187;-77
2022/02/28 01:36:55;;;;;;;3.10;2.40;;;5.40;91.50;;;;;;5056285;28;20177;-77
2022/02/28 01:39:21;;;;;;;5.43;2.67;;;5.40;91.40;;;;;;5056983;28;20182;-77
2022/02/28 01:41:46;;;;;;;5.37;3.70;;;5.40;91.50;;;;;;5055757;28;20542;-77
2022/02/28 01:44:12;;;;;;;4.07;2.00;;;5.40;91.40;;;;;;5052205;28;20193;-77
2022/02/28 01:46:39;;;;;;;6.88;2.65;;;5.40;91.50;;;;;;5056380;28;20208;-77
2022/02/28 01:49:06;;;;;;;3.38;3.08;;;5.40;91.50;;;;;;5039754;28;20629;-77
2022/02/28 01:51:35;;;;;;;3.10;2.10;;;5.40;91.70;;;;;;5052901;28;20220;-77
2022/02/28 01:54:01;;;;;;;3.45;2.55;;;5.40;91.60;;;;;;5057130;28;20181;-77
2022/02/28 01:56:27;;;;;;;5.40;3.03;;;5.40;91.70;;;;;;5053246;28;20232;-77
2022/02/28 01:58:53;;;;;;;3.07;2.27;;;5.40;91.80;;;;;;5040325;28;20584;-76
2022/02/28 02:01:19;;;;;;;4.70;2.57;;;5.40;91.80;;;;;;5056943;28;20607;-76
2022/02/28 02:03:44;;;;;;;3.72;3.00;;;5.40;91.80;;;;;;5054292;28;20248;-77
2022/02/28 02:06:12;;;;;;;4.33;2.10;;;5.40;91.80;;;;;;5053883;28;20192;-77
2022/02/28 02:08:40;;;;;;;3.92;2.35;;;5.40;91.90;;;;;;5034478;28;20216;-77
2022/02/28 02:11:06;;;;;;;5.68;2.42;;;5.40;91.90;;;;;;5050894;28;20257;-77
2022/02/28 02:13:33;;;;;;;3.50;2.45;;;5.40;92.10;;;;;;5051414;28;20181;-77
2022/02/28 02:16:00;;;;;;;3.67;2.70;;;5.40;92.00;;;;;;5042800;28;20169;-77
2022/02/28 02:18:26;;;;;;;3.85;2.80;;;5.30;92.00;;;;;;5054024;28;20588;-77
2022/02/28 02:20:53;;;;;;;5.50;3.27;;;5.30;92.10;;;;;;5052627;28;20292;-77
2022/02/28 02:23:20;;;;;;;4.28;2.70;;;5.30;92.10;;;;;;5050981;28;20200;-77
2022/02/28 02:25:46;;;;;;;3.72;2.42;;;5.30;92.20;;;;;;5046301;28;20209;-77
2022/02/28 02:28:19;;;;;;;3.40;2.53;;;5.30;92.20;;;;;;5051113;28;20193;-77
2022/02/28 02:30:54;;;;;;;2.85;2.30;;;5.30;92.10;;;;;;5041958;28;20200;-76
2022/02/28 02:33:21;;;;;;;3.33;2.30;;;5.30;92.20;;;;;;5024949;28;20197;-76
2022/02/28 02:35:55;;;;;;;4.32;3.15;;;5.30;92.10;;;;;;5028375;28;20720;-77
2022/02/28 02:38:22;;;;;;;3.95;2.88;;;5.20;92.50;;;;;;5027948;28;20265;-76
2022/02/28 02:40:48;;;;;;;3.83;2.53;;;5.20;92.30;;;;;;5043573;28;20197;-77
2022/02/28 02:43:14;;;;;;;3.20;2.40;;;5.20;92.20;;;;;;5045214;28;20178;-77
2022/02/28 02:45:41;;;;;;;2.75;2.08;;;5.20;92.20;;;;;;5044356;28;20613;-77
2022/02/28 02:48:26;;;;;;;3.53;2.00;;;5.20;92.30;;;;;;5049020;28;20215;-77
2022/02/28 02:51:08;;;;;;;3.63;2.75;;;5.20;92.30;;;;;;5029665;28;20276;-77
2022/02/28 02:53:35;;;;;;;3.75;2.50;;;5.10;92.30;;;;;;5044873;28;20174;-77
2022/02/28 02:56:01;;;;;;;2.40;1.63;;;5.10;92.30;;;;;;5053522;28;20184;-78
2022/02/28 02:58:28;;;;;;;3.65;2.80;;;5.10;92.30;;;;;;5055842;28;20247;-77
2022/02/28 03:00:54;;;;;;;2.20;2.00;;;5.00;92.40;;;;;;5053355;28;20209;-77
2022/02/28 03:03:29;;;;;;;3.45;2.63;;;5.00;92.40;;;;;;5046552;28;20183;-77
2022/02/28 03:05:55;;;;;;;3.40;2.42;;;5.00;92.50;;;;;;5031108;28;20194;-77
2022/02/28 03:08:22;;;;;;;3.97;2.75;;;5.00;92.70;;;;;;5050386;28;20295;-77
2022/02/28 03:10:48;;;;;;;3.13;2.27;;;4.90;92.60;;;;;;5031886;28;20257;-77
2022/02/28 03:13:16;;;;;;;4.47;2.75;;;4.90;92.80;;;;;;5053066;28;20575;-77
2022/02/28 03:15:42;;;;;;;4.73;2.70;;;4.90;92.80;;;;;;5049253;28;20193;-77
2022/02/28 03:18:11;;;;;;;3.45;2.22;;;4.90;92.90;;;;;;5024736;28;20592;-77
2022/02/28 03:20:37;;;;;;;5.20;2.67;;;4.90;92.90;;;;;;5050194;28;20210;-77
2022/02/28 03:23:03;;;;;;;2.90;2.27;;;4.90;92.90;;;;;;5035217;28;20188;-77
2022/02/28 03:25:29;;;;;;;3.33;3.00;;;4.90;92.90;;;;;;5053195;28;20188;-77
2022/02/28 03:27:59;;;;;;;4.05;2.95;;;4.90;93.00;;;;;;5049792;28;20606;-77
2022/02/28 03:30:25;;;;;;;3.77;3.03;;;4.90;93.10;;;;;;5057041;28;20204;-77
2022/02/28 03:32:52;;;;;;;3.28;2.55;;;4.90;93.00;;;;;;5050032;28;20235;-77
2022/02/28 03:35:18;;;;;;;2.77;2.30;;;4.90;93.00;;;;;;5026747;28;20594;-77
2022/02/28 03:37:43;;;;;;;4.30;3.53;;;4.90;93.00;;;;;;5035336;28;20211;-77
2022/02/28 03:40:10;;;;;;;3.45;2.72;;;4.80;93.10;;;;;;5055717;28;20665;-77
2022/02/28 03:42:37;;;;;;;4.43;2.55;;;4.80;93.10;;;;;;5055576;28;20169;-78
2022/02/28 03:45:04;;;;;;;4.18;2.22;;;4.80;93.20;;;;;;5027210;28;20192;-77
2022/02/28 03:47:30;;;;;;;4.65;2.58;;;4.80;93.20;;;;;;5047567;28;20201;-77
2022/02/28 03:50:14;;;;;;;3.80;2.40;;;4.80;93.20;;;;;;5049065;28;20228;-77
2022/02/28 03:52:40;;;;;;;3.90;2.23;;;4.80;93.20;;;;;;5035244;28;20255;-77
2022/02/28 03:55:14;;;;;;;4.75;2.63;;;4.70;93.20;;;;;;5048686;28;20203;-77
2022/02/28 03:57:41;;;;;;;3.35;2.42;;;4.70;93.30;;;;;;5049472;28;20199;-77
2022/02/28 04:00:09;;;;;;;2.63;2.20;;;4.70;93.30;;;;;;5054972;28;20204;-77
2022/02/28 04:02:42;;;;;;;2.72;2.22;;;4.70;93.40;;;;;;5050775;28;20185;-77
2022/02/28 04:05:10;;;;;;;3.75;3.17;;;4.60;93.40;;;;;;5052740;28;20248;-77
2022/02/28 04:07:37;;;;;;;4.63;2.10;;;4.60;93.90;;;;;;5050230;28;20211;-77
2022/02/28 04:10:03;;;;;;;3.58;2.90;;;4.60;93.70;;;;;;5029802;28;20201;-77
2022/02/28 04:12:30;;;;;;;6.00;3.22;;;4.60;94.00;;;;;;5035474;28;20177;-77
2022/02/28 04:14:56;;;;;;;3.17;2.70;;;4.60;94.00;;;;;;5047653;28;20188;-77
2022/02/28 04:17:24;;;;;;;4.43;2.55;;;4.60;93.90;;;;;;5051679;28;20191;-78
2022/02/28 04:19:52;;;;;;;3.75;2.67;;;4.60;93.90;;;;;;5052202;28;20201;-77
2022/02/28 04:22:18;;;;;;;4.30;3.03;;;4.60;94.20;;;;;;5029688;28;20202;-78
2022/02/28 04:24:47;;;;;;;3.50;2.55;;;4.60;94.10;;;;;;5043661;28;20581;-78
2022/02/28 04:27:14;;;;;;;3.95;2.70;;;4.60;94.10;;;;;;5052656;28;20188;-78
2022/02/28 04:29:41;;;;;;;4.72;2.95;;;4.60;94.10;;;;;;5043611;28;20177;-77
2022/02/28 04:32:13;;;;;;;5.05;3.25;;;4.60;94.30;;;;;;5048183;28;20228;-77
2022/02/28 04:34:51;;;;;;;4.25;2.90;;;4.60;94.20;;;;;;5047640;28;20193;-77
2022/02/28 04:37:17;;;;;;;5.95;3.05;;;4.60;94.60;;;;;;5019554;28;20185;-77
2022/02/28 04:39:43;;;;;;;3.03;2.73;;;4.60;94.60;;;;;;5027564;28;20181;-77
2022/02/28 04:42:09;;;;;;;3.67;2.90;;;4.60;94.50;;;;;;5042700;28;20178;-77
2022/02/28 04:44:36;;;;;;;3.63;2.80;;;4.60;94.50;;;;;;5047877;28;20170;-77
2022/02/28 04:47:02;;;;;;;4.43;2.40;;;4.60;94.60;;;;;;5032526;28;20310;-77
2022/02/28 04:49:48;;;;;;;3.38;3.03;;;4.60;94.40;;;;;;5051190;28;20216;-77
2022/02/28 04:52:15;;;;;;;4.80;3.20;;;4.60;94.50;;;;;;5047922;28;20185;-77
2022/02/28 04:54:41;;;;;;;4.65;2.70;;;4.60;94.80;;;;;;5051421;28;20211;-77
2022/02/28 04:57:07;;;;;;;4.40;2.90;;;4.60;94.50;;;;;;5047767;28;20174;-77
2022/02/28 04:59:33;;;;;;;4.03;3.03;;;4.60;94.50;;;;;;5044870;28;20177;-77
2022/02/28 05:01:59;;;;;;;3.55;2.53;;;4.60;94.70;;;;;;5048153;28;20188;-78
2022/02/28 05:04:43;;;;;;;3.60;2.45;;;4.50;94.60;;;;;;5044303;28;20177;-77
2022/02/28 05:07:10;;;;;;;5.32;3.80;;;4.60;94.60;;;;;;5051252;28;20645;-77
2022/02/28 05:09:36;;;;;;;3.50;2.93;;;4.50;94.60;;;;;;5019894;28;20260;-77
2022/02/28 05:12:03;;;;;;;3.42;2.95;;;4.50;94.70;;;;;;5041822;28;20575;-78
2022/02/28 05:14:31;;;;;;;6.22;3.55;;;4.50;94.60;;;;;;5025190;28;20269;-78
2022/02/28 05:16:57;;;;;;;5.20;2.57;;;4.50;94.70;;;;;;5031787;28;20760;-77
2022/02/28 05:19:24;;;;;;;8.73;3.78;;;4.50;94.80;;;;;;5048995;28;20641;-77
2022/02/28 05:21:50;;;;;;;3.43;3.00;;;4.40;94.90;;;;;;5052672;28;20193;-77
2022/02/28 05:24:16;;;;;;;3.90;2.90;;;4.40;94.80;;;;;;5029571;28;20189;-77
2022/02/28 05:26:42;;;;;;;4.15;2.95;;;4.40;95.10;;;;;;5044249;28;20598;-77
2022/02/28 05:29:07;;;;;;;5.17;3.00;;;4.40;95.20;;;;;;5046267;28;20197;-78
2022/02/28 05:31:34;;;;;;;4.90;3.00;;;4.40;95.10;;;;;;5042156;28;20193;-78
2022/02/28 05:34:32;;;;;;;4.18;3.20;;;4.40;95.10;;;;;;5042282;28;20219;-77
2022/02/28 05:36:58;;;;;;;6.32;3.05;;;4.40;95.10;;;;;;5034684;28;20177;-77
2022/02/28 05:40:00;;;;;;;5.63;2.97;;;4.30;95.30;;;;;;5038932;28;20196;-77
2022/02/28 05:42:33;;;;;;;6.28;3.50;;;4.30;95.30;;;;;;5036441;28;20646;-77
2022/02/28 05:44:59;;;;;;;6.15;4.20;;;4.30;95.30;;;;;;5012226;28;20610;-77
2022/02/28 05:47:25;;;;;;;7.87;4.30;;;4.30;95.70;;;;;;5050260;28;20202;-77
2022/02/28 05:49:52;;;;;;;4.93;4.43;;;4.30;95.80;;;;;;5050890;28;20674;-77
2022/02/28 05:52:18;;;;;;;4.77;3.83;;;4.30;95.80;;;;;;5052907;28;20179;-77
2022/02/28 05:54:44;;;;;;;5.05;3.80;;;4.30;96.00;;;;;;5034268;28;20255;-77
2022/02/28 05:57:10;;;;;;;3.70;3.27;;;4.30;95.80;;;;;;5053668;28;20568;-77
2022/02/28 05:59:35;;;;;;;3.70;3.20;;;4.30;95.70;;;;;;5053741;28;20203;-77
2022/02/28 06:02:01;;;;;;;4.90;3.63;;;4.30;95.80;;;;;;5054152;28;20185;-77
2022/02/28 06:04:27;;;;;;;5.70;3.83;;;4.30;96.10;;;;;;5056421;28;20699;-77
2022/02/28 06:06:52;;;;;;;4.37;3.80;;;4.20;96.20;;;;;;5052927;28;20173;-77
2022/02/28 06:09:18;;;;;;;5.07;3.93;;;4.20;96.00;;;;;;5034710;28;20246;-77
2022/02/28 06:11:44;;;;;;;4.53;3.30;;;4.30;96.10;;;;;;5054186;28;20286;-77
2022/02/28 06:14:09;;;;;;;4.67;3.33;;;4.20;96.00;;;;;;5049325;28;20622;-78
2022/02/28 06:16:38;;;;;;;6.93;4.18;;;4.30;96.00;;;;;;5050078;28;20181;-77
2022/02/28 06:19:04;;;;;;;6.18;3.63;;;4.20;96.20;;;;;;5051131;28;20573;-77
2022/02/28 06:21:30;;;;;;;7.70;3.17;;;4.30;96.00;;;;;;5052348;28;20197;-78
2022/02/28 06:23:56;;;;;;;6.03;4.00;;;4.30;96.00;;;;;;5053223;28;20248;-77
2022/02/28 06:26:21;;;;;;;7.37;4.87;;;4.20;96.40;;;;;;5055487;28;20651;-77
2022/02/28 06:28:48;;;;;;;5.75;4.20;;;4.20;96.40;;;;;;5060766;28;20282;-77
2022/02/28 06:31:14;;;;;;;5.63;4.57;;;4.20;96.40;;;;;;5056315;28;20198;-77
2022/02/28 06:33:40;;;;;;;7.13;3.43;;;4.20;96.40;;;;;;5051573;28;20181;-78
2022/02/28 06:36:06;;;;;;;4.90;3.30;;;4.30;96.40;;;;;;5053807;28;20536;-77
2022/02/28 06:38:32;;;;;;;4.78;3.35;;;4.30;96.40;;;;;;5059315;28;20212;-77
2022/02/28 06:40:58;;;;;;;4.97;3.50;;;4.30;96.40;;;;;;5052505;28;20553;-78
2022/02/28 06:43:27;;;;;;;4.67;3.60;;;4.30;96.80;;;;;;5059096;28;20580;-77
2022/02/28 06:45:54;;;;;;;5.13;3.60;;;4.30;96.30;;;;;;5062749;28;20603;-77
2022/02/28 06:48:20;;;;;;;6.00;4.22;;;4.30;96.40;;;;;;5059718;28;20205;-77
2022/02/28 06:50:47;;;;;;;7.03;4.05;;;4.30;96.60;;;;;;5060755;28;20673;-77
2022/02/28 06:53:18;;;;;;;6.30;4.65;;;4.30;96.60;;;;;;5060210;28;20231;-77
2022/02/28 06:55:46;;;;;;;6.65;4.22;;;4.30;96.70;;;;;;5061308;28;20177;-77
2022/02/28 06:58:12;;;;;;;5.20;3.60;;;4.30;96.70;;;;;;5057313;28;20243;-77
2022/02/28 07:00:38;;;;;;;4.70;3.90;;;4.30;96.70;;;;;;5060850;28;20197;-78
2022/02/28 07:03:07;;;;;;;6.55;4.18;;;4.40;96.70;;;;;;5059764;28;20604;-78
2022/02/28 07:05:35;;;;;;;5.15;4.28;;;4.40;96.80;;;;;;5056737;28;20180;-78
2022/02/28 07:08:00;;;;;;;7.15;5.03;;;4.40;96.80;;;;;;5057361;28;20232;-78
2022/02/28 07:10:26;;;;;;;6.87;5.23;;;4.40;97.10;;;;;;5054450;28;20229;-77
2022/02/28 07:12:52;;;;;;;7.40;5.23;;;4.40;97.00;;;;;;5049201;28;20181;-78
2022/02/28 07:15:18;;;;;;;5.60;4.30;;;4.50;97.00;;;;;;5054550;28;20173;-77
2022/02/28 07:17:44;;;;;;;8.03;4.33;;;4.50;97.20;;;;;;5049439;28;20619;-77
2022/02/28 07:20:10;;;;;;;4.67;4.17;;;4.50;97.20;;;;;;5048207;28;20687;-77
2022/02/28 07:22:36;;;;;;;5.25;4.60;;;4.50;97.10;;;;;;5050761;28;20587;-77
2022/02/28 07:25:03;;;;;;;18.30;5.83;;;4.60;97.10;;;;;;5047735;28;20682;-77
2022/02/28 07:27:29;;;;;;;6.95;4.47;;;4.60;97.20;;;;;;5047232;28;20599;-78
2022/02/28 07:29:55;;;;;;;6.60;4.40;;;4.60;97.20;;;;;;5051534;28;20670;-78
2022/02/28 07:32:20;;;;;;;9.00;5.80;;;4.70;97.20;;;;;;5050677;28;20230;-77
2022/02/28 07:34:46;;;;;;;6.60;4.80;;;4.70;97.20;;;;;;5049770;28;20173;-77
2022/02/28 07:37:12;;;;;;;6.87;4.43;;;4.70;97.20;;;;;;5051894;28;20239;-77
2022/02/28 07:39:38;;;;;;;6.47;4.50;;;4.80;97.20;;;;;;5049107;28;20181;-77
2022/02/28 07:42:04;;;;;;;5.97;4.73;;;4.80;97.10;;;;;;5052548;28;20587;-78
2022/02/28 07:44:30;;;;;;;7.55;6.00;;;4.90;97.20;;;;;;5053242;28;20178;-76
2022/02/28 07:46:56;;;;;;;8.83;5.30;;;4.90;97.20;;;;;;5049053;28;20189;-77
2022/02/28 07:49:22;;;;;;;7.43;5.28;;;5.00;97.30;;;;;;5045949;28;20622;-76
2022/02/28 07:51:48;;;;;;;11.25;4.88;;;5.10;97.30;;;;;;5053990;28;20182;-77
2022/02/28 07:54:14;;;;;;;10.20;5.17;;;5.20;97.30;;;;;;5049039;28;20599;-77
2022/02/28 07:56:40;;;;;;;7.57;5.37;;;5.20;97.20;;;;;;5041286;28;20192;-77
2022/02/28 07:59:06;;;;;;;7.80;4.25;;;5.30;97.30;;;;;;5046841;28;20584;-77
2022/02/28 08:01:32;;;;;;;6.65;5.95;;;5.40;97.30;;;;;;5053150;28;20193;-77
2022/02/28 08:03:57;;;;;;;8.67;5.73;;;5.40;97.10;;;;;;5048482;28;20538;-77
2022/02/28 08:06:24;;;;;;;7.63;5.20;;;5.50;97.00;;;;;;5049186;28;20177;-77
2022/02/28 08:08:49;;;;;;;6.78;5.45;;;5.60;97.00;;;;;;5043450;28;20292;-77
2022/02/28 08:11:15;;;;;;;8.07;5.97;;;5.60;96.60;;;;;;5052469;28;20216;-78
2022/02/28 08:13:41;;;;;;;6.30;4.82;;;5.60;96.70;;;;;;5048520;28;20174;-77
2022/02/28 08:16:10;;;;;;;6.73;5.57;;;5.70;96.80;;;;;;5056328;28;20173;-77
2022/02/28 08:18:35;;;;;;;7.32;5.45;;;5.80;96.20;;;;;;5047502;28;20192;-77
2022/02/28 08:21:01;;;;;;;7.07;6.00;;;5.90;96.30;;;;;;5042552;28;20201;-76
2022/02/28 08:23:27;;;;;;;11.13;6.10;;;5.90;95.70;;;;;;5037117;28;20594;-78
2022/02/28 08:25:52;;;;;;;6.20;5.60;;;6.00;95.70;;;;;;5051039;28;20204;-77
2022/02/28 08:28:19;;;;;;;7.10;4.70;;;6.20;95.80;;;;;;5057111;28;20197;-78
2022/02/28 08:30:45;;;;;;;9.93;5.90;;;6.70;96.30;;;;;;5042041;28;20826;-78
2022/02/28 08:33:10;;;;;;;8.03;4.77;;;7.30;96.90;;;;;;5058677;28;20149;-77
2022/02/28 08:35:36;;;;;;;5.63;5.03;;;8.10;99.00;;;;;;5062585;28;21186;-78
2022/02/28 08:38:04;;;;;;;7.27;6.17;;;9.10;98.20;;;;;;5059010;28;20929;-77
2022/02/28 08:40:30;;;;;;;7.75;6.20;;;10.00;97.20;;;;;;5057811;28;20182;-77
2022/02/28 08:42:56;;;;;;;6.77;5.23;;;10.60;95.70;;;;;;5063716;28;20184;-77
2022/02/28 08:45:21;;;;;;;10.47;6.23;;;11.40;94.70;;;;;;5059256;28;20194;-77
2022/02/28 08:47:47;;;;;;;7.40;6.50;;;11.90;91.60;;;;;;5060534;28;21144;-78
2022/02/28 08:50:16;;;;;;;9.00;4.90;;;12.50;91.10;;;;;;5059244;28;20670;-77
2022/02/28 08:52:43;;;;;;;8.63;4.97;;;12.90;90.90;;;;;;5058592;28;20173;-77
2022/02/28 08:55:09;;;;;;;5.80;5.20;;;13.40;84.00;;;;;;5051674;28;20619;-78
2022/02/28 08:57:36;;;;;;;6.20;4.33;;;14.00;88.60;;;;;;5042098;28;20671;-78
2022/02/28 09:00:07;;;;;;;5.70;4.97;;;14.60;90.00;;;;;;5049398;28;20698;-78
2022/02/28 09:02:33;;;;;;;5.80;4.17;;;15.20;81.20;;;;;;5057702;28;20595;-78
2022/02/28 09:04:59;;;;;;;7.00;5.40;;;15.60;81.30;;;;;;5055739;28;20634;-78
2022/02/28 09:07:25;;;;;;;6.23;5.33;;;15.90;75.80;;;;;;5053275;28;20957;-76
2022/02/28 09:09:51;;;;;;;5.50;4.87;;;15.70;65.70;;;;;;5045906;28;20610;-76
2022/02/28 09:12:16;;;;;;;8.23;4.80;;;15.70;65.00;;;;;;5048638;28;20186;-77
2022/02/28 09:14:42;;;;;;;5.33;4.57;;;15.90;67.10;;;;;;5035853;28;20547;-76
2022/02/28 09:17:08;;;;;;;4.90;4.50;;;16.30;68.20;;;;;;5036971;28;20591;-78
2022/02/28 09:19:34;;;;;;;6.63;4.83;;;16.60;70.30;;;;;;5054609;28;20626;-78
2022/02/28 09:22:00;;;;;;;5.30;4.80;;;16.60;62.30;;;;;;5055370;28;20615;-77
2022/02/28 09:24:28;;;;;;;7.33;5.47;;;16.70;64.40;;;;;;5054900;28;20615;-77
2022/02/28 09:26:55;;;;;;;5.67;4.50;;;16.70;58.80;;;;;;5050813;28;20580;-77
2022/02/28 09:29:22;;;;;;;4.37;3.43;;;16.80;62.20;;;;;;5060536;28;20620;-76
2022/02/28 09:31:48;;;;;;;4.10;3.70;;;16.90;64.00;;;;;;5059543;28;20608;-75
2022/02/28 09:34:13;;;;;;;4.13;3.70;;;17.40;67.00;;;;;;5058655;28;21258;-76
2022/02/28 09:36:41;;;;;;;3.77;3.40;;;18.00;68.40;;;;;;5057429;28;20283;-76
2022/02/28 09:39:07;;;;;;;5.17;4.43;;;18.40;68.60;;;;;;5053055;28;20183;-77
2022/02/28 09:41:40;;;;;;;4.73;4.20;;;18.50;56.70;;;;;;5021184;28;20708;-78
2022/02/28 09:44:25;;;;;;;4.97;3.80;;;18.50;59.00;;;;;;5048882;28;20575;-77
2022/02/28 09:47:12;;;;;;;7.03;5.00;;;18.50;58.10;;;;;;5016743;28;20608;-77
2022/02/28 09:50:13;;;;;;;6.10;4.83;;;18.10;54.40;;;;;;5017196;28;20630;-77
2022/02/28 09:52:58;;;;;;;6.07;5.30;;;17.90;55.50;;;;;;5032395;28;20600;-77
2022/02/28 09:55:50;;;;;;;7.43;4.10;;;17.70;56.10;;;;;;5042218;28;20572;-77
2022/02/28 09:58:39;;;;;;;5.03;4.00;;;17.80;56.60;;;;;;5026583;28;20595;-78
2022/02/28 10:01:06;;;;;;;5.00;4.50;;;18.20;58.50;;;;;;5049095;28;20607;-77
2022/02/28 10:03:38;;;;;;;5.70;3.87;;;18.70;57.70;;;;;;5048170;28;20992;-77
2022/02/28 10:06:04;;;;;;;4.93;4.37;;;19.20;59.30;;;;;;5027813;28;20591;-78
2022/02/28 10:08:42;;;;;;;5.67;5.07;;;19.80;60.30;;;;;;5041687;28;20636;-78
2022/02/28 10:11:30;;;;;;;5.50;4.50;;;20.20;52.00;;;;;;5042586;28;20211;-78
2022/02/28 10:13:58;;;;;;;6.70;6.00;;;19.60;46.10;;;;;;5041698;28;20576;-78
2022/02/28 10:17:00;;;;;;;6.43;5.77;;;19.50;49.00;;;;;;5045436;28;20579;-78
2022/02/28 10:19:29;;;;;;;5.40;4.77;;;19.30;49.60;;;;;;5026712;28;20687;-77
2022/02/28 10:21:57;;;;;;;6.30;5.60;;;19.00;49.80;;;;;;5049808;28;20623;-77
2022/02/28 10:24:26;;;;;;;6.47;5.77;;;18.30;46.10;;;;;;5055236;28;20587;-78
2022/02/28 10:27:15;;;;;;;5.60;4.83;;;17.90;46.50;;;;;;5041587;28;20592;-77
2022/02/28 10:30:00;;;;;;;7.57;6.13;;;17.50;46.70;;;;;;5049382;28;20618;-78
2022/02/28 10:32:49;;;;;;;6.93;6.23;;;17.20;46.20;;;;;;5051804;28;21217;-77
2022/02/28 10:38:32;;;;;;;6.43;5.70;;;16.50;48.40;;;;;;5036986;28;20591;-78
2022/02/28 10:45:09;;;;;;;8.33;6.20;;;16.20;46.00;;;;;;5045523;28;20572;-76
2022/02/28 10:47:47;;;;;;;4.90;4.40;;;16.00;46.80;;;;;;5048040;28;20951;-76
2022/02/28 10:50:13;;;;;;;6.77;5.43;;;15.90;47.90;;;;;;5052417;28;20744;-76
2022/02/28 10:52:57;;;;;;;6.63;5.27;;;15.80;48.70;;;;;;5047777;28;20595;-77
2022/02/28 10:55:35;;;;;;;6.57;5.13;;;15.80;47.20;;;;;;5024675;28;20578;-77
2022/02/28 10:58:09;;;;;;;5.07;4.53;;;15.90;49.10;;;;;;5046926;28;20607;-77
2022/02/28 11:00:56;;;;;;;4.90;4.40;;;16.00;50.20;;;;;;5041536;28;20624;-77
2022/02/28 11:03:24;;;;;;;7.27;5.03;;;16.30;51.50;;;;;;5030946;28;20599;-77
2022/02/28 11:05:57;;;;;;;5.63;5.13;;;16.60;52.50;;;;;;5026511;28;20654;-77
2022/02/28 11:08:26;;;;;;;6.30;5.60;;;16.90;51.60;;;;;;5025939;28;20652;-77
2022/02/28 11:10:55;;;;;;;4.90;4.40;;;17.00;51.50;;;;;;5028852;28;20618;-77
2022/02/28 11:13:22;;;;;;;5.83;5.23;;;17.00;50.10;;;;;;5046496;28;21155;-77
2022/02/28 11:15:49;;;;;;;6.80;4.90;;;17.00;49.20;;;;;;5026661;28;20947;-77
2022/02/28 11:18:20;;;;;;;5.83;4.83;;;16.90;49.20;;;;;;5042769;28;20591;-77
2022/02/28 11:20:50;;;;;;;7.70;5.13;;;16.80;47.60;;;;;;5050647;28;20953;-77
2022/02/28 11:23:19;;;;;;;5.20;4.70;;;16.60;47.80;;;;;;5041315;28;20926;-77
2022/02/28 11:25:47;;;;;;;7.60;6.07;;;16.60;48.20;;;;;;5030298;28;20682;-77
2022/02/28 11:28:19;;;;;;;6.23;5.63;;;16.60;49.20;;;;;;5048504;28;20635;-77
2022/02/28 11:30:45;;;;;;;7.07;5.80;;;16.50;48.50;;;;;;5024132;28;20607;-77
2022/02/28 11:33:14;;;;;;;6.17;5.00;;;16.50;49.10;;;;;;5021173;28;20616;-77
2022/02/28 11:35:53;;;;;;;7.40;5.80;;;16.40;48.40;;;;;;5043352;28;21120;-77
2022/02/28 11:38:18;;;;;;;7.20;5.50;;;16.30;48.10;;;;;;5033971;28;20936;-76
2022/02/28 11:41:00;;;;;;;5.27;4.77;;;16.60;49.40;;;;;;5044270;28;20611;-77
2022/02/28 11:43:28;;;;;;;9.10;5.40;;;16.60;48.40;;;;;;5040646;28;20181;-77
2022/02/28 11:46:07;;;;;;;5.23;4.73;;;16.40;46.90;;;;;;5040210;28;20618;-77
2022/02/28 11:48:47;;;;;;;5.43;4.60;;;16.30;46.60;;;;;;5047855;28;20659;-77
2022/02/28 11:51:30;;;;;;;5.80;5.00;;;16.30;47.70;;;;;;5020902;28;20615;-76
2022/02/28 11:53:59;;;;;;;5.17;4.67;;;16.40;48.40;;;;;;5013896;28;20588;-77
2022/02/28 11:56:24;;;;;;;6.50;5.47;;;16.50;49.10;;;;;;5043718;28;20654;-77
2022/02/28 11:58:58;;;;;;;6.20;5.63;;;16.40;47.20;;;;;;5041029;28;21167;-77
2022/02/28 12:01:39;;;;;;;8.80;5.60;;;16.30;47.20;;;;;;5043025;28;20197;-77
2022/02/28 12:04:08;;;;;;;6.33;5.37;;;16.30;48.00;;;;;;5044633;28;20669;-77
2022/02/28 12:06:54;;;;;;;5.67;5.07;;;16.30;47.90;;;;;;5024016;28;21165;-77
2022/02/28 12:09:38;;;;;;;6.10;5.47;;;16.30;48.30;;;;;;5040874;28;20631;-77
2022/02/28 12:12:28;;;;;;;6.10;5.10;;;16.30;46.80;;;;;;5039184;28;20575;-77
2022/02/28 12:15:00;;;;;;;7.90;6.07;;;16.10;46.00;;;;;;5044015;28;21403;-77
2022/02/28 12:17:33;;;;;;;6.17;4.53;;;15.90;46.00;;;;;;5019267;28;20600;-77
2022/02/28 12:20:26;;;;;;;6.20;5.17;;;16.00;48.30;;;;;;5046860;28;21089;-77
2022/02/28 12:22:55;;;;;;;9.23;6.43;;;16.10;47.90;;;;;;5044405;28;20572;-77
2022/02/28 12:25:53;;;;;;;6.67;5.90;;;16.10;47.20;;;;;;5050869;28;20644;-77
2022/02/28 12:28:25;;;;;;;5.93;5.33;;;15.90;45.50;;;;;;5043007;28;21009;-77
2022/02/28 12:30:55;;;;;;;8.20;5.57;;;15.80;47.20;;;;;;5035816;28;20612;-76
2022/02/28 12:33:28;;;;;;;9.60;7.80;;;15.70;46.70;;;;;;5040618;28;20897;-77
2022/02/28 12:36:15;;;;;;;9.63;7.60;;;15.60;46.40;;;;;;5026248;28;21171;-76
2022/02/28 12:38:56;;;;;;;7.40;5.93;;;15.30;45.10;;;;;;5040309;28;20572;-77
2022/02/28 12:41:27;;;;;;;10.40;5.90;;;15.40;46.90;;;;;;5035128;28;20624;-76
2022/02/28 12:43:54;;;;;;;10.43;7.73;;;15.30;47.10;;;;;;5044587;28;20675;-77
2022/02/28 12:46:32;;;;;;;8.10;6.77;;;15.30;47.50;;;;;;5037698;28;20649;-77
2022/02/28 12:48:59;;;;;;;10.87;6.90;;;15.30;47.30;;;;;;5036196;28;20627;-77
2022/02/28 12:51:28;;;;;;;14.23;11.10;;;15.20;47.30;;;;;;5041507;28;21279;-77
2022/02/28 12:54:06;;;;;;;12.37;8.80;;;14.80;46.20;;;;;;5020323;28;20573;-77
2022/02/28 12:56:42;;;;;;;9.97;6.90;;;14.40;45.40;;;;;;5039526;28;20576;-77
2022/02/28 12:59:08;;;;;;;5.80;5.20;;;14.20;46.20;;;;;;5039185;28;20579;-76
2022/02/28 13:01:37;;;;;;;6.20;5.53;;;14.00;46.40;;;;;;5048406;28;21305;-77
2022/02/28 13:04:05;;;;;;;8.40;7.07;;;13.90;46.90;;;;;;5037452;28;20587;-77
2022/02/28 13:06:38;;;;;;;6.38;5.18;;;13.60;46.40;;;;;;5042201;28;20215;-77
2022/02/28 13:09:07;;;;;;;6.60;5.68;;;13.50;46.70;;;;;;5041692;28;20600;-77
2022/02/28 13:11:46;;;;;;;7.45;5.22;;;13.40;46.90;;;;;;5037567;28;20190;-76